sensor_id;sensor_type;location;lat;lon;timestamp;P1;durP1;ratioP1;P2;durP2;ratioP2
74624;SDS011;63131;52.298;8.056;2023-10-13T00:01:47;27.55;;;15.25;;
74624;SDS011;63131;52.298;8.056;2023-10-13T00:04:13;22.88;;;13.98;;
74624;SDS011;63131;52.298;8.056;2023-10-13T00:06:38;26.15;;;14.77;;
74624;SDS011;63131;52.298;8.056;2023-10-13T00:09:09;23.35;;;14.23;;
74624;SDS011;63131;52.298;8.056;2023-10-13T00:11:47;21.45;;;12.80;;
74624;SDS011;63131;52.298;8.056;2023-10-13T00:14:21;24.48;;;14.10;;
74624;SDS011;63131;52.298;8.056;2023-10-13T00:16:47;25.42;;;13.75;;
74624;SDS011;63131;52.298;8.056;2023-10-13T00:19:27;22.60;;;13.95;;
74624;SDS011;63131;52.298;8.056;2023-10-13T00:21:52;24.42;;;14.02;;
74624;SDS011;63131;52.298;8.056;2023-10-13T00:24:20;21.98;;;13.95;;
74624;SDS011;63131;52.298;8.056;2023-10-13T00:26:48;24.20;;;13.63;;
74624;SDS011;63131;52.298;8.056;2023-10-13T00:29:14;22.50;;;13.73;;
74624;SDS011;63131;52.298;8.056;2023-10-13T00:31:57;22.38;;;13.88;;
74624;SDS011;63131;52.298;8.056;2023-10-13T00:34:22;22.37;;;11.83;;
74624;SDS011;63131;52.298;8.056;2023-10-13T00:36:54;24.58;;;15.32;;
74624;SDS011;63131;52.298;8.056;2023-10-13T00:39:42;22.75;;;13.95;;
74624;SDS011;63131;52.298;8.056;2023-10-13T00:42:14;23.08;;;13.63;;
74624;SDS011;63131;52.298;8.056;2023-10-13T00:44:53;25.80;;;13.35;;
74624;SDS011;63131;52.298;8.056;2023-10-13T00:47:19;22.42;;;13.32;;
74624;SDS011;63131;52.298;8.056;2023-10-13T00:50:18;24.35;;;14.15;;
74624;SDS011;63131;52.298;8.056;2023-10-13T00:52:45;22.15;;;12.45;;
74624;SDS011;63131;52.298;8.056;2023-10-13T00:55:15;21.02;;;12.48;;
74624;SDS011;63131;52.298;8.056;2023-10-13T00:57:52;25.95;;;13.30;;
74624;SDS011;63131;52.298;8.056;2023-10-13T01:00:19;24.42;;;13.77;;
74624;SDS011;63131;52.298;8.056;2023-10-13T01:02:49;25.58;;;12.75;;
74624;SDS011;63131;52.298;8.056;2023-10-13T01:05:31;24.08;;;13.07;;
74624;SDS011;63131;52.298;8.056;2023-10-13T01:08:01;25.17;;;14.13;;
74624;SDS011;63131;52.298;8.056;2023-10-13T01:10:29;24.85;;;13.57;;
74624;SDS011;63131;52.298;8.056;2023-10-13T01:12:57;26.17;;;15.38;;
74624;SDS011;63131;52.298;8.056;2023-10-13T01:15:26;24.80;;;14.23;;
74624;SDS011;63131;52.298;8.056;2023-10-13T01:18:10;26.98;;;15.40;;
74624;SDS011;63131;52.298;8.056;2023-10-13T01:20:40;23.73;;;14.23;;
74624;SDS011;63131;52.298;8.056;2023-10-13T01:23:10;27.25;;;15.57;;
74624;SDS011;63131;52.298;8.056;2023-10-13T01:25:56;28.23;;;17.35;;
74624;SDS011;63131;52.298;8.056;2023-10-13T01:28:22;25.23;;;15.27;;
74624;SDS011;63131;52.298;8.056;2023-10-13T01:30:58;25.55;;;16.30;;
74624;SDS011;63131;52.298;8.056;2023-10-13T01:33:26;29.05;;;18.38;;
74624;SDS011;63131;52.298;8.056;2023-10-13T01:35:52;29.75;;;17.80;;
74624;SDS011;63131;52.298;8.056;2023-10-13T01:38:20;29.83;;;17.55;;
74624;SDS011;63131;52.298;8.056;2023-10-13T01:40:45;29.58;;;17.85;;
74624;SDS011;63131;52.298;8.056;2023-10-13T01:43:20;24.80;;;15.45;;
74624;SDS011;63131;52.298;8.056;2023-10-13T01:45:48;26.37;;;17.20;;
74624;SDS011;63131;52.298;8.056;2023-10-13T01:48:15;26.73;;;17.35;;
74624;SDS011;63131;52.298;8.056;2023-10-13T01:50:42;29.48;;;16.35;;
74624;SDS011;63131;52.298;8.056;2023-10-13T01:53:07;28.70;;;17.48;;
74624;SDS011;63131;52.298;8.056;2023-10-13T01:55:44;27.98;;;16.38;;
74624;SDS011;63131;52.298;8.056;2023-10-13T01:58:13;29.38;;;17.05;;
74624;SDS011;63131;52.298;8.056;2023-10-13T02:00:42;25.67;;;15.20;;
74624;SDS011;63131;52.298;8.056;2023-10-13T02:03:08;28.80;;;16.95;;
74624;SDS011;63131;52.298;8.056;2023-10-13T02:05:40;27.65;;;16.67;;
74624;SDS011;63131;52.298;8.056;2023-10-13T02:08:08;29.85;;;16.35;;
74624;SDS011;63131;52.298;8.056;2023-10-13T02:10:42;25.90;;;16.42;;
74624;SDS011;63131;52.298;8.056;2023-10-13T02:13:12;27.77;;;14.88;;
74624;SDS011;63131;52.298;8.056;2023-10-13T02:15:41;27.00;;;16.90;;
74624;SDS011;63131;52.298;8.056;2023-10-13T02:18:07;25.48;;;16.35;;
74624;SDS011;63131;52.298;8.056;2023-10-13T02:20:34;26.50;;;17.30;;
74624;SDS011;63131;52.298;8.056;2023-10-13T02:25:35;25.08;;;14.38;;
74624;SDS011;63131;52.298;8.056;2023-10-13T02:28:03;23.92;;;15.50;;
74624;SDS011;63131;52.298;8.056;2023-10-13T02:30:36;24.33;;;14.55;;
74624;SDS011;63131;52.298;8.056;2023-10-13T02:33:02;24.50;;;15.65;;
74624;SDS011;63131;52.298;8.056;2023-10-13T02:35:30;26.73;;;14.77;;
74624;SDS011;63131;52.298;8.056;2023-10-13T02:38:06;23.63;;;14.73;;
74624;SDS011;63131;52.298;8.056;2023-10-13T02:40:36;24.40;;;14.52;;
74624;SDS011;63131;52.298;8.056;2023-10-13T02:43:10;21.77;;;15.38;;
74624;SDS011;63131;52.298;8.056;2023-10-13T02:45:51;20.60;;;12.63;;
74624;SDS011;63131;52.298;8.056;2023-10-13T02:48:39;21.15;;;12.77;;
74624;SDS011;63131;52.298;8.056;2023-10-13T02:51:11;21.92;;;13.65;;
74624;SDS011;63131;52.298;8.056;2023-10-13T02:53:46;22.73;;;12.95;;
74624;SDS011;63131;52.298;8.056;2023-10-13T02:56:15;20.42;;;13.20;;
74624;SDS011;63131;52.298;8.056;2023-10-13T02:58:46;22.35;;;12.88;;
74624;SDS011;63131;52.298;8.056;2023-10-13T03:06:16;22.40;;;13.98;;
74624;SDS011;63131;52.298;8.056;2023-10-13T03:08:42;23.17;;;14.75;;
74624;SDS011;63131;52.298;8.056;2023-10-13T03:11:09;21.42;;;13.35;;
74624;SDS011;63131;52.298;8.056;2023-10-13T03:13:35;25.65;;;15.43;;
74624;SDS011;63131;52.298;8.056;2023-10-13T03:16:00;23.88;;;14.80;;
74624;SDS011;63131;52.298;8.056;2023-10-13T03:20:54;22.48;;;13.68;;
74624;SDS011;63131;52.298;8.056;2023-10-13T03:23:24;26.67;;;15.25;;
74624;SDS011;63131;52.298;8.056;2023-10-13T03:25:49;25.83;;;15.30;;
74624;SDS011;63131;52.298;8.056;2023-10-13T03:28:14;24.17;;;16.38;;
74624;SDS011;63131;52.298;8.056;2023-10-13T03:30:42;24.67;;;14.85;;
74624;SDS011;63131;52.298;8.056;2023-10-13T03:33:08;24.40;;;13.68;;
74624;SDS011;63131;52.298;8.056;2023-10-13T03:35:50;25.20;;;14.15;;
74624;SDS011;63131;52.298;8.056;2023-10-13T03:38:19;21.67;;;14.18;;
74624;SDS011;63131;52.298;8.056;2023-10-13T03:40:44;21.75;;;14.07;;
74624;SDS011;63131;52.298;8.056;2023-10-13T03:43:48;23.17;;;13.80;;
74624;SDS011;63131;52.298;8.056;2023-10-13T03:46:17;21.95;;;13.82;;
74624;SDS011;63131;52.298;8.056;2023-10-13T03:48:46;20.92;;;11.85;;
74624;SDS011;63131;52.298;8.056;2023-10-13T03:51:19;21.30;;;13.00;;
74624;SDS011;63131;52.298;8.056;2023-10-13T03:53:44;20.13;;;11.83;;
74624;SDS011;63131;52.298;8.056;2023-10-13T03:56:19;19.63;;;12.50;;
74624;SDS011;63131;52.298;8.056;2023-10-13T03:58:53;20.38;;;12.25;;
74624;SDS011;63131;52.298;8.056;2023-10-13T04:01:20;20.85;;;13.23;;
74624;SDS011;63131;52.298;8.056;2023-10-13T04:03:54;21.75;;;13.13;;
74624;SDS011;63131;52.298;8.056;2023-10-13T04:06:27;22.17;;;12.70;;
74624;SDS011;63131;52.298;8.056;2023-10-13T04:09:17;20.67;;;13.13;;
74624;SDS011;63131;52.298;8.056;2023-10-13T04:11:59;22.02;;;13.10;;
74624;SDS011;63131;52.298;8.056;2023-10-13T04:14:37;21.90;;;12.65;;
74624;SDS011;63131;52.298;8.056;2023-10-13T04:17:37;21.30;;;11.73;;
74624;SDS011;63131;52.298;8.056;2023-10-13T04:20:09;20.95;;;12.07;;
74624;SDS011;63131;52.298;8.056;2023-10-13T04:22:35;23.30;;;12.87;;
74624;SDS011;63131;52.298;8.056;2023-10-13T04:27:56;19.88;;;13.52;;
74624;SDS011;63131;52.298;8.056;2023-10-13T04:33:29;22.08;;;12.25;;
74624;SDS011;63131;52.298;8.056;2023-10-13T04:38:26;20.37;;;11.90;;
74624;SDS011;63131;52.298;8.056;2023-10-13T04:40:58;22.40;;;12.45;;
74624;SDS011;63131;52.298;8.056;2023-10-13T04:43:26;19.33;;;12.57;;
74624;SDS011;63131;52.298;8.056;2023-10-13T04:46:16;19.95;;;12.18;;
74624;SDS011;63131;52.298;8.056;2023-10-13T04:49:00;22.35;;;14.00;;
74624;SDS011;63131;52.298;8.056;2023-10-13T04:51:36;20.48;;;13.30;;
74624;SDS011;63131;52.298;8.056;2023-10-13T04:54:20;21.92;;;13.60;;
74624;SDS011;63131;52.298;8.056;2023-10-13T04:56:58;21.83;;;13.13;;
74624;SDS011;63131;52.298;8.056;2023-10-13T04:59:42;24.23;;;16.17;;
74624;SDS011;63131;52.298;8.056;2023-10-13T05:02:26;23.33;;;14.23;;
74624;SDS011;63131;52.298;8.056;2023-10-13T05:05:05;22.77;;;15.30;;
74624;SDS011;63131;52.298;8.056;2023-10-13T05:07:30;21.13;;;13.02;;
74624;SDS011;63131;52.298;8.056;2023-10-13T05:10:14;22.77;;;14.40;;
74624;SDS011;63131;52.298;8.056;2023-10-13T05:12:58;22.52;;;13.30;;
74624;SDS011;63131;52.298;8.056;2023-10-13T05:15:42;22.40;;;14.27;;
74624;SDS011;63131;52.298;8.056;2023-10-13T05:18:26;23.17;;;12.90;;
74624;SDS011;63131;52.298;8.056;2023-10-13T05:21:10;23.55;;;13.15;;
74624;SDS011;63131;52.298;8.056;2023-10-13T05:23:54;21.60;;;13.20;;
74624;SDS011;63131;52.298;8.056;2023-10-13T05:26:38;20.45;;;13.30;;
74624;SDS011;63131;52.298;8.056;2023-10-13T05:29:22;18.70;;;11.73;;
74624;SDS011;63131;52.298;8.056;2023-10-13T05:32:06;21.17;;;12.45;;
74624;SDS011;63131;52.298;8.056;2023-10-13T05:34:50;19.90;;;11.95;;
74624;SDS011;63131;52.298;8.056;2023-10-13T05:37:34;15.35;;;10.00;;
74624;SDS011;63131;52.298;8.056;2023-10-13T05:40:18;18.02;;;9.70;;
74624;SDS011;63131;52.298;8.056;2023-10-13T05:43:04;16.60;;;9.32;;
74624;SDS011;63131;52.298;8.056;2023-10-13T05:45:47;15.13;;;9.50;;
74624;SDS011;63131;52.298;8.056;2023-10-13T05:48:31;16.60;;;8.93;;
74624;SDS011;63131;52.298;8.056;2023-10-13T05:51:20;14.55;;;8.98;;
74624;SDS011;63131;52.298;8.056;2023-10-13T05:54:00;18.23;;;9.10;;
74624;SDS011;63131;52.298;8.056;2023-10-13T05:56:39;14.73;;;8.40;;
74624;SDS011;63131;52.298;8.056;2023-10-13T05:59:24;14.88;;;7.40;;
74624;SDS011;63131;52.298;8.056;2023-10-13T06:02:08;13.90;;;7.18;;
74624;SDS011;63131;52.298;8.056;2023-10-13T06:04:52;18.15;;;7.43;;
74624;SDS011;63131;52.298;8.056;2023-10-13T06:07:36;13.23;;;7.28;;
74624;SDS011;63131;52.298;8.056;2023-10-13T06:10:20;14.27;;;7.45;;
74624;SDS011;63131;52.298;8.056;2023-10-13T06:13:04;20.52;;;8.95;;
74624;SDS011;63131;52.298;8.056;2023-10-13T06:15:48;14.15;;;7.90;;
74624;SDS011;63131;52.298;8.056;2023-10-13T06:18:32;14.18;;;8.73;;
74624;SDS011;63131;52.298;8.056;2023-10-13T06:21:16;15.93;;;9.25;;
74624;SDS011;63131;52.298;8.056;2023-10-13T06:24:00;15.20;;;8.43;;
74624;SDS011;63131;52.298;8.056;2023-10-13T06:26:46;16.05;;;8.93;;
74624;SDS011;63131;52.298;8.056;2023-10-13T06:29:40;15.63;;;10.50;;
74624;SDS011;63131;52.298;8.056;2023-10-13T06:32:06;13.80;;;8.52;;
74624;SDS011;63131;52.298;8.056;2023-10-13T06:34:36;15.88;;;9.15;;
74624;SDS011;63131;52.298;8.056;2023-10-13T06:37:16;15.25;;;8.13;;
74624;SDS011;63131;52.298;8.056;2023-10-13T06:39:50;15.38;;;8.50;;
74624;SDS011;63131;52.298;8.056;2023-10-13T06:42:16;16.92;;;8.98;;
74624;SDS011;63131;52.298;8.056;2023-10-13T06:44:43;16.05;;;8.35;;
74624;SDS011;63131;52.298;8.056;2023-10-13T06:47:12;14.07;;;8.27;;
74624;SDS011;63131;52.298;8.056;2023-10-13T06:49:39;14.55;;;8.85;;
74624;SDS011;63131;52.298;8.056;2023-10-13T06:52:05;16.17;;;8.20;;
74624;SDS011;63131;52.298;8.056;2023-10-13T06:54:32;13.52;;;8.70;;
74624;SDS011;63131;52.298;8.056;2023-10-13T06:56:58;15.25;;;9.05;;
74624;SDS011;63131;52.298;8.056;2023-10-13T06:59:24;14.57;;;8.32;;
74624;SDS011;63131;52.298;8.056;2023-10-13T07:01:51;14.13;;;7.72;;
74624;SDS011;63131;52.298;8.056;2023-10-13T07:04:17;12.90;;;7.35;;
74624;SDS011;63131;52.298;8.056;2023-10-13T07:06:42;13.57;;;7.27;;
74624;SDS011;63131;52.298;8.056;2023-10-13T07:09:17;12.02;;;6.15;;
74624;SDS011;63131;52.298;8.056;2023-10-13T07:12:01;11.70;;;6.72;;
74624;SDS011;63131;52.298;8.056;2023-10-13T07:14:28;11.48;;;7.07;;
74624;SDS011;63131;52.298;8.056;2023-10-13T07:16:57;11.27;;;6.63;;
74624;SDS011;63131;52.298;8.056;2023-10-13T07:19:29;11.40;;;6.55;;
74624;SDS011;63131;52.298;8.056;2023-10-13T07:21:54;12.57;;;7.28;;
74624;SDS011;63131;52.298;8.056;2023-10-13T07:24:27;11.45;;;6.88;;
74624;SDS011;63131;52.298;8.056;2023-10-13T07:26:57;13.70;;;8.10;;
74624;SDS011;63131;52.298;8.056;2023-10-13T07:29:28;12.20;;;7.35;;
74624;SDS011;63131;52.298;8.056;2023-10-13T07:31:53;12.60;;;7.75;;
74624;SDS011;63131;52.298;8.056;2023-10-13T07:34:18;12.67;;;6.83;;
74624;SDS011;63131;52.298;8.056;2023-10-13T07:36:54;11.20;;;6.60;;
74624;SDS011;63131;52.298;8.056;2023-10-13T07:39:28;22.05;;;7.55;;
74624;SDS011;63131;52.298;8.056;2023-10-13T07:41:58;11.45;;;6.30;;
74624;SDS011;63131;52.298;8.056;2023-10-13T07:44:30;11.13;;;6.60;;
74624;SDS011;63131;52.298;8.056;2023-10-13T07:46:59;10.63;;;5.70;;
74624;SDS011;63131;52.298;8.056;2023-10-13T07:49:28;12.40;;;6.18;;
74624;SDS011;63131;52.298;8.056;2023-10-13T07:51:56;11.38;;;6.28;;
74624;SDS011;63131;52.298;8.056;2023-10-13T07:54:25;12.35;;;5.82;;
74624;SDS011;63131;52.298;8.056;2023-10-13T07:56:51;11.10;;;6.05;;
74624;SDS011;63131;52.298;8.056;2023-10-13T07:59:18;11.32;;;5.90;;
74624;SDS011;63131;52.298;8.056;2023-10-13T08:01:47;10.23;;;5.20;;
74624;SDS011;63131;52.298;8.056;2023-10-13T08:04:12;9.70;;;5.33;;
74624;SDS011;63131;52.298;8.056;2023-10-13T08:06:38;9.03;;;5.07;;
74624;SDS011;63131;52.298;8.056;2023-10-13T08:09:06;12.77;;;5.30;;
74624;SDS011;63131;52.298;8.056;2023-10-13T08:11:35;9.15;;;5.07;;
74624;SDS011;63131;52.298;8.056;2023-10-13T08:14:03;9.07;;;5.10;;
74624;SDS011;63131;52.298;8.056;2023-10-13T08:16:42;9.88;;;4.97;;
74624;SDS011;63131;52.298;8.056;2023-10-13T08:19:28;10.60;;;5.53;;
74624;SDS011;63131;52.298;8.056;2023-10-13T08:21:57;10.73;;;5.00;;
74624;SDS011;63131;52.298;8.056;2023-10-13T08:24:43;11.05;;;5.80;;
74624;SDS011;63131;52.298;8.056;2023-10-13T08:27:08;11.70;;;6.05;;
74624;SDS011;63131;52.298;8.056;2023-10-13T08:29:39;13.18;;;6.78;;
74624;SDS011;63131;52.298;8.056;2023-10-13T08:32:27;12.05;;;6.18;;
74624;SDS011;63131;52.298;8.056;2023-10-13T08:34:52;11.77;;;6.13;;
74624;SDS011;63131;52.298;8.056;2023-10-13T08:37:18;11.80;;;5.72;;
74624;SDS011;63131;52.298;8.056;2023-10-13T08:39:46;13.35;;;6.13;;
74624;SDS011;63131;52.298;8.056;2023-10-13T08:42:34;11.55;;;6.03;;
74624;SDS011;63131;52.298;8.056;2023-10-13T08:45:07;13.00;;;6.55;;
74624;SDS011;63131;52.298;8.056;2023-10-13T08:47:51;11.73;;;6.13;;
74624;SDS011;63131;52.298;8.056;2023-10-13T08:50:20;12.55;;;6.07;;
74624;SDS011;63131;52.298;8.056;2023-10-13T08:53:05;14.50;;;7.25;;
74624;SDS011;63131;52.298;8.056;2023-10-13T08:55:50;14.10;;;6.65;;
74624;SDS011;63131;52.298;8.056;2023-10-13T08:58:29;15.77;;;7.45;;
74624;SDS011;63131;52.298;8.056;2023-10-13T09:01:14;10.07;;;5.80;;
74624;SDS011;63131;52.298;8.056;2023-10-13T09:03:59;14.40;;;6.53;;
74624;SDS011;63131;52.298;8.056;2023-10-13T09:09:30;14.00;;;5.15;;
74624;SDS011;63131;52.298;8.056;2023-10-13T09:14:32;11.32;;;4.03;;
74624;SDS011;63131;52.298;8.056;2023-10-13T09:17:03;9.45;;;4.32;;
74624;SDS011;63131;52.298;8.056;2023-10-13T09:19:48;12.13;;;4.35;;
74624;SDS011;63131;52.298;8.056;2023-10-13T09:22:22;14.70;;;4.55;;
74624;SDS011;63131;52.298;8.056;2023-10-13T09:24:53;13.57;;;4.53;;
74624;SDS011;63131;52.298;8.056;2023-10-13T09:27:19;9.32;;;3.80;;
74624;SDS011;63131;52.298;8.056;2023-10-13T09:29:53;16.88;;;5.57;;
74624;SDS011;63131;52.298;8.056;2023-10-13T09:32:22;10.68;;;4.53;;
74624;SDS011;63131;52.298;8.056;2023-10-13T09:34:50;10.25;;;4.78;;
74624;SDS011;63131;52.298;8.056;2023-10-13T09:37:16;16.58;;;4.30;;
74624;SDS011;63131;52.298;8.056;2023-10-13T09:39:46;10.27;;;3.97;;
74624;SDS011;63131;52.298;8.056;2023-10-13T09:42:13;13.02;;;4.35;;
74624;SDS011;63131;52.298;8.056;2023-10-13T09:44:40;10.48;;;4.50;;
74624;SDS011;63131;52.298;8.056;2023-10-13T09:47:08;10.83;;;4.03;;
74624;SDS011;63131;52.298;8.056;2023-10-13T09:49:43;10.35;;;4.50;;
74624;SDS011;63131;52.298;8.056;2023-10-13T09:52:18;10.88;;;4.13;;
74624;SDS011;63131;52.298;8.056;2023-10-13T09:57:43;13.40;;;3.88;;
74624;SDS011;63131;52.298;8.056;2023-10-13T10:00:17;11.30;;;4.13;;
74624;SDS011;63131;52.298;8.056;2023-10-13T10:03:05;12.82;;;4.72;;
74624;SDS011;63131;52.298;8.056;2023-10-13T10:05:40;12.80;;;4.88;;
74624;SDS011;63131;52.298;8.056;2023-10-13T10:08:06;14.88;;;4.40;;
74624;SDS011;63131;52.298;8.056;2023-10-13T10:10:43;10.45;;;4.47;;
74624;SDS011;63131;52.298;8.056;2023-10-13T10:13:15;10.57;;;4.15;;
74624;SDS011;63131;52.298;8.056;2023-10-13T10:15:46;10.68;;;4.30;;
74624;SDS011;63131;52.298;8.056;2023-10-13T10:18:18;12.00;;;4.28;;
74624;SDS011;63131;52.298;8.056;2023-10-13T10:20:47;9.35;;;4.38;;
74624;SDS011;63131;52.298;8.056;2023-10-13T10:23:26;13.02;;;4.60;;
74624;SDS011;63131;52.298;8.056;2023-10-13T10:25:53;13.20;;;4.30;;
74624;SDS011;63131;52.298;8.056;2023-10-13T10:28:38;12.73;;;4.78;;
74624;SDS011;63131;52.298;8.056;2023-10-13T10:31:06;13.95;;;4.30;;
74624;SDS011;63131;52.298;8.056;2023-10-13T10:33:34;9.60;;;4.45;;
74624;SDS011;63131;52.298;8.056;2023-10-13T10:36:00;11.15;;;4.30;;
74624;SDS011;63131;52.298;8.056;2023-10-13T10:38:25;13.18;;;5.22;;
74624;SDS011;63131;52.298;8.056;2023-10-13T10:40:54;11.15;;;4.38;;
74624;SDS011;63131;52.298;8.056;2023-10-13T10:43:26;12.18;;;4.32;;
74624;SDS011;63131;52.298;8.056;2023-10-13T10:45:53;10.10;;;4.25;;
74624;SDS011;63131;52.298;8.056;2023-10-13T10:48:24;11.18;;;4.32;;
74624;SDS011;63131;52.298;8.056;2023-10-13T10:50:56;10.70;;;4.55;;
74624;SDS011;63131;52.298;8.056;2023-10-13T10:53:23;11.30;;;4.75;;
74624;SDS011;63131;52.298;8.056;2023-10-13T10:56:07;11.38;;;5.18;;
74624;SDS011;63131;52.298;8.056;2023-10-13T10:58:44;10.25;;;3.90;;
74624;SDS011;63131;52.298;8.056;2023-10-13T11:01:09;12.30;;;4.78;;
74624;SDS011;63131;52.298;8.056;2023-10-13T11:03:36;14.60;;;4.47;;
74624;SDS011;63131;52.298;8.056;2023-10-13T11:06:07;9.23;;;4.03;;
74624;SDS011;63131;52.298;8.056;2023-10-13T11:08:40;13.45;;;4.38;;
74624;SDS011;63131;52.298;8.056;2023-10-13T11:11:06;9.82;;;4.45;;
74624;SDS011;63131;52.298;8.056;2023-10-13T11:13:43;11.77;;;4.18;;
74624;SDS011;63131;52.298;8.056;2023-10-13T11:16:20;11.40;;;5.00;;
74624;SDS011;63131;52.298;8.056;2023-10-13T11:18:59;9.90;;;3.95;;
74624;SDS011;63131;52.298;8.056;2023-10-13T11:21:28;11.60;;;4.03;;
74624;SDS011;63131;52.298;8.056;2023-10-13T11:23:57;11.10;;;4.15;;
74624;SDS011;63131;52.298;8.056;2023-10-13T11:26:32;11.55;;;4.95;;
74624;SDS011;63131;52.298;8.056;2023-10-13T11:28:57;13.40;;;4.28;;
74624;SDS011;63131;52.298;8.056;2023-10-13T11:31:23;10.90;;;5.22;;
74624;SDS011;63131;52.298;8.056;2023-10-13T11:33:49;10.55;;;4.40;;
74624;SDS011;63131;52.298;8.056;2023-10-13T11:36:22;12.32;;;4.13;;
74624;SDS011;63131;52.298;8.056;2023-10-13T11:38:56;12.40;;;4.05;;
74624;SDS011;63131;52.298;8.056;2023-10-13T11:41:23;12.57;;;3.75;;
74624;SDS011;63131;52.298;8.056;2023-10-13T11:43:51;11.25;;;4.07;;
74624;SDS011;63131;52.298;8.056;2023-10-13T11:46:21;13.93;;;4.15;;
74624;SDS011;63131;52.298;8.056;2023-10-13T11:49:02;12.68;;;5.00;;
74624;SDS011;63131;52.298;8.056;2023-10-13T11:51:48;12.00;;;4.63;;
74624;SDS011;63131;52.298;8.056;2023-10-13T11:54:14;14.07;;;4.38;;
74624;SDS011;63131;52.298;8.056;2023-10-13T11:56:41;12.70;;;4.53;;
74624;SDS011;63131;52.298;8.056;2023-10-13T11:59:06;12.75;;;4.38;;
74624;SDS011;63131;52.298;8.056;2023-10-13T12:01:31;15.43;;;5.23;;
74624;SDS011;63131;52.298;8.056;2023-10-13T12:04:26;14.40;;;5.03;;
74624;SDS011;63131;52.298;8.056;2023-10-13T12:07:20;14.27;;;4.10;;
74624;SDS011;63131;52.298;8.056;2023-10-13T12:09:47;12.63;;;4.32;;
74624;SDS011;63131;52.298;8.056;2023-10-13T12:12:22;13.27;;;3.92;;
74624;SDS011;63131;52.298;8.056;2023-10-13T12:14:48;13.02;;;4.57;;
74624;SDS011;63131;52.298;8.056;2023-10-13T12:17:29;9.82;;;4.13;;
74624;SDS011;63131;52.298;8.056;2023-10-13T12:20:00;13.35;;;4.47;;
74624;SDS011;63131;52.298;8.056;2023-10-13T12:22:25;11.45;;;4.38;;
74624;SDS011;63131;52.298;8.056;2023-10-13T12:24:56;12.75;;;4.32;;
74624;SDS011;63131;52.298;8.056;2023-10-13T12:27:22;10.95;;;4.43;;
74624;SDS011;63131;52.298;8.056;2023-10-13T12:30:00;13.43;;;4.47;;
74624;SDS011;63131;52.298;8.056;2023-10-13T12:32:32;10.48;;;4.97;;
74624;SDS011;63131;52.298;8.056;2023-10-13T12:35:13;16.48;;;5.55;;
74624;SDS011;63131;52.298;8.056;2023-10-13T12:37:39;12.23;;;4.55;;
74624;SDS011;63131;52.298;8.056;2023-10-13T12:40:08;11.38;;;5.15;;
74624;SDS011;63131;52.298;8.056;2023-10-13T12:42:52;12.35;;;4.40;;
74624;SDS011;63131;52.298;8.056;2023-10-13T12:45:39;13.57;;;4.45;;
74624;SDS011;63131;52.298;8.056;2023-10-13T12:48:23;11.88;;;4.85;;
74624;SDS011;63131;52.298;8.056;2023-10-13T12:51:07;10.75;;;4.25;;
74624;SDS011;63131;52.298;8.056;2023-10-13T12:53:44;15.15;;;4.85;;
74624;SDS011;63131;52.298;8.056;2023-10-13T12:56:10;10.50;;;4.40;;
74624;SDS011;63131;52.298;8.056;2023-10-13T12:58:36;14.98;;;4.45;;
74624;SDS011;63131;52.298;8.056;2023-10-13T13:01:01;12.83;;;4.70;;
74624;SDS011;63131;52.298;8.056;2023-10-13T13:03:31;10.55;;;4.25;;
74624;SDS011;63131;52.298;8.056;2023-10-13T13:05:57;12.55;;;4.47;;
74624;SDS011;63131;52.298;8.056;2023-10-13T13:08:22;13.07;;;5.17;;
74624;SDS011;63131;52.298;8.056;2023-10-13T13:10:48;10.07;;;4.60;;
74624;SDS011;63131;52.298;8.056;2023-10-13T13:13:14;13.88;;;4.55;;
74624;SDS011;63131;52.298;8.056;2023-10-13T13:15:41;11.63;;;4.55;;
74624;SDS011;63131;52.298;8.056;2023-10-13T13:18:07;15.18;;;5.38;;
74624;SDS011;63131;52.298;8.056;2023-10-13T13:20:36;11.93;;;4.93;;
74624;SDS011;63131;52.298;8.056;2023-10-13T13:23:04;13.70;;;5.20;;
74624;SDS011;63131;52.298;8.056;2023-10-13T13:25:29;13.17;;;4.73;;
74624;SDS011;63131;52.298;8.056;2023-10-13T13:27:56;14.15;;;5.10;;
74624;SDS011;63131;52.298;8.056;2023-10-13T13:30:21;13.07;;;4.45;;
74624;SDS011;63131;52.298;8.056;2023-10-13T13:32:47;12.73;;;4.88;;
74624;SDS011;63131;52.298;8.056;2023-10-13T13:35:13;13.25;;;5.43;;
74624;SDS011;63131;52.298;8.056;2023-10-13T13:37:43;15.38;;;5.30;;
74624;SDS011;63131;52.298;8.056;2023-10-13T13:40:09;13.63;;;4.78;;
74624;SDS011;63131;52.298;8.056;2023-10-13T13:42:41;14.35;;;5.00;;
74624;SDS011;63131;52.298;8.056;2023-10-13T13:45:17;14.15;;;5.78;;
74624;SDS011;63131;52.298;8.056;2023-10-13T13:47:47;12.52;;;5.10;;
74624;SDS011;63131;52.298;8.056;2023-10-13T13:50:18;15.90;;;5.45;;
74624;SDS011;63131;52.298;8.056;2023-10-13T13:52:48;15.00;;;4.85;;
74624;SDS011;63131;52.298;8.056;2023-10-13T13:55:14;13.38;;;4.90;;
74624;SDS011;63131;52.298;8.056;2023-10-13T13:57:42;13.55;;;5.00;;
74624;SDS011;63131;52.298;8.056;2023-10-13T14:00:08;13.73;;;5.28;;
74624;SDS011;63131;52.298;8.056;2023-10-13T14:02:33;16.65;;;5.90;;
74624;SDS011;63131;52.298;8.056;2023-10-13T14:05:00;16.30;;;5.25;;
74624;SDS011;63131;52.298;8.056;2023-10-13T14:07:27;10.85;;;4.45;;
74624;SDS011;63131;52.298;8.056;2023-10-13T14:09:57;17.58;;;5.45;;
74624;SDS011;63131;52.298;8.056;2023-10-13T14:12:32;13.32;;;4.35;;
74624;SDS011;63131;52.298;8.056;2023-10-13T14:15:08;13.23;;;5.07;;
74624;SDS011;63131;52.298;8.056;2023-10-13T14:17:45;14.02;;;5.70;;
74624;SDS011;63131;52.298;8.056;2023-10-13T14:20:10;13.57;;;4.78;;
74624;SDS011;63131;52.298;8.056;2023-10-13T14:22:43;16.27;;;5.85;;
74624;SDS011;63131;52.298;8.056;2023-10-13T14:25:12;14.85;;;4.63;;
74624;SDS011;63131;52.298;8.056;2023-10-13T14:27:39;14.95;;;4.78;;
74624;SDS011;63131;52.298;8.056;2023-10-13T14:30:04;13.10;;;4.47;;
74624;SDS011;63131;52.298;8.056;2023-10-13T14:32:30;13.85;;;5.60;;
74624;SDS011;63131;52.298;8.056;2023-10-13T14:34:55;14.77;;;4.43;;
74624;SDS011;63131;52.298;8.056;2023-10-13T14:37:21;14.65;;;4.57;;
74624;SDS011;63131;52.298;8.056;2023-10-13T14:39:56;12.88;;;5.43;;
74624;SDS011;63131;52.298;8.056;2023-10-13T14:42:25;14.38;;;4.93;;
74624;SDS011;63131;52.298;8.056;2023-10-13T14:44:51;11.32;;;4.63;;
74624;SDS011;63131;52.298;8.056;2023-10-13T14:47:21;12.13;;;4.50;;
74624;SDS011;63131;52.298;8.056;2023-10-13T14:49:49;16.00;;;4.55;;
74624;SDS011;63131;52.298;8.056;2023-10-13T14:52:14;13.73;;;4.63;;
74624;SDS011;63131;52.298;8.056;2023-10-13T14:54:42;10.68;;;4.82;;
74624;SDS011;63131;52.298;8.056;2023-10-13T14:57:07;15.20;;;4.73;;
74624;SDS011;63131;52.298;8.056;2023-10-13T14:59:33;13.03;;;3.83;;
74624;SDS011;63131;52.298;8.056;2023-10-13T15:02:01;12.70;;;4.07;;
74624;SDS011;63131;52.298;8.056;2023-10-13T15:04:29;13.23;;;4.55;;
74624;SDS011;63131;52.298;8.056;2023-10-13T15:06:57;14.32;;;4.47;;
74624;SDS011;63131;52.298;8.056;2023-10-13T15:09:22;10.50;;;4.10;;
74624;SDS011;63131;52.298;8.056;2023-10-13T15:11:51;10.82;;;4.40;;
74624;SDS011;63131;52.298;8.056;2023-10-13T15:14:20;15.95;;;5.05;;
74624;SDS011;63131;52.298;8.056;2023-10-13T15:16:45;11.40;;;4.07;;
74624;SDS011;63131;52.298;8.056;2023-10-13T15:19:11;12.95;;;4.50;;
74624;SDS011;63131;52.298;8.056;2023-10-13T15:21:37;12.63;;;4.30;;
74624;SDS011;63131;52.298;8.056;2023-10-13T15:24:05;13.57;;;4.47;;
74624;SDS011;63131;52.298;8.056;2023-10-13T15:26:39;12.50;;;3.90;;
74624;SDS011;63131;52.298;8.056;2023-10-13T15:29:07;10.80;;;3.92;;